Terminal Aerodrome Forecast
Issued by NWS Wichita, KS

Home | Current Version | Previous Version | Text Only | Print | Product List | Glossary On
Versions: 1 2 3 4 5 6 7 8 9 10 11 12 13 14 15 16 17
000
FTUS43 KICT 301124
TAFICT
TAF
KICT 301124Z 3012/3112 25010KT P6SM SCT150
     FM301500 32011KT P6SM SCT200
     FM301700 35016G23KT P6SM SKC
     FM310000 36011KT P6SM SKC=

USA.gov is the U.S. government's official web portal to all federal, state and local government web resources and services.